createdAt,value
2023-05-26T00:00:12.800Z,10.00
2023-05-26T00:02:40.111Z,9.49
2023-05-26T00:05:07.988Z,9.48
2023-05-26T00:07:38.041Z,9.91
2023-05-26T00:10:04.796Z,9.82
2023-05-26T00:12:31.320Z,9.36
2023-05-26T00:14:57.951Z,9.79
2023-05-26T00:17:24.757Z,9.45
2023-05-26T00:19:51.338Z,9.72
2023-05-26T00:22:17.883Z,9.65
2023-05-26T00:24:44.386Z,9.63
2023-05-26T00:27:10.905Z,9.12
2023-05-26T00:29:37.837Z,9.13
2023-05-26T00:32:05.223Z,9.72
2023-05-26T00:34:31.833Z,9.57
2023-05-26T00:36:58.290Z,9.50
2023-05-26T00:39:24.771Z,9.45
2023-05-26T00:41:51.243Z,9.27
2023-05-26T00:44:17.904Z,9.60
2023-05-26T00:46:44.450Z,9.56
2023-05-26T00:49:10.993Z,9.43
2023-05-26T00:51:37.883Z,9.61
2023-05-26T00:54:06.392Z,9.38
2023-05-26T00:56:33.895Z,9.26
2023-05-26T00:59:00.397Z,9.24
2023-05-26T01:01:26.961Z,9.27
2023-05-26T01:03:53.941Z,9.30
2023-05-26T01:06:20.536Z,8.83
2023-05-26T01:08:47.054Z,9.27
2023-05-26T01:11:20.275Z,9.13
2023-05-26T01:13:53.518Z,9.13
2023-05-26T01:16:23.784Z,8.75
2023-05-26T01:19:19.581Z,9.04
2023-05-26T01:21:49.052Z,9.06
2023-05-26T01:24:18.228Z,8.77
2023-05-26T01:27:03.836Z,9.10
2023-05-26T01:29:34.206Z,8.69
2023-05-26T01:32:09.111Z,9.07
2023-05-26T01:34:35.634Z,9.07
2023-05-26T01:37:02.119Z,8.92
2023-05-26T01:39:28.929Z,8.97
2023-05-26T01:42:19.704Z,8.88
2023-05-26T01:45:03.341Z,8.88
2023-05-26T01:47:31.786Z,8.57
2023-05-26T01:50:02.354Z,8.79
2023-05-26T01:52:28.996Z,8.65
2023-05-26T01:55:03.204Z,8.75
2023-05-26T01:57:30.517Z,8.62
2023-05-26T01:59:57.357Z,8.75
2023-05-26T02:02:23.989Z,8.77
2023-05-26T02:04:50.549Z,8.76
2023-05-26T02:07:17.107Z,8.66
2023-05-26T02:09:43.564Z,8.64
2023-05-26T02:12:10.824Z,8.62
2023-05-26T02:14:37.306Z,8.28
2023-05-26T02:17:03.874Z,8.64
2023-05-26T02:19:30.397Z,8.39
2023-05-26T02:21:56.837Z,8.52
2023-05-26T02:24:23.466Z,8.56
2023-05-26T02:26:49.949Z,8.25
2023-05-26T02:29:16.492Z,8.02
2023-05-26T02:31:43.579Z,8.43
2023-05-26T02:34:10.833Z,8.17
2023-05-26T02:36:37.380Z,8.38
2023-05-26T02:39:03.858Z,8.40
2023-05-26T02:41:30.372Z,8.15
2023-05-26T02:43:56.822Z,8.31
2023-05-26T02:46:23.446Z,8.36
2023-05-26T02:48:50.051Z,8.10
2023-05-26T02:51:16.688Z,8.31
2023-05-26T02:53:45.390Z,8.21
2023-05-26T02:56:11.888Z,7.92
2023-05-26T02:58:38.357Z,8.13
2023-05-26T03:01:04.823Z,7.95
2023-05-26T03:03:31.434Z,8.03
2023-05-26T03:05:58.221Z,8.14
2023-05-26T03:08:24.708Z,7.98
2023-05-26T03:11:09.583Z,8.14
2023-05-26T03:13:37.548Z,8.04
2023-05-26T03:16:04.120Z,7.91
2023-05-26T03:18:30.601Z,8.09
2023-05-26T03:20:57.080Z,8.04
2023-05-26T03:23:26.138Z,8.08
2023-05-26T03:25:52.594Z,7.78
2023-05-26T03:28:19.007Z,8.04
2023-05-26T03:30:45.573Z,8.11
2023-05-26T03:33:12.134Z,8.01
2023-05-26T03:35:38.650Z,8.08
2023-05-26T03:38:05.098Z,7.80
2023-05-26T03:40:31.517Z,8.07
2023-05-26T03:42:58.006Z,7.75
2023-05-26T03:45:24.569Z,7.97
2023-05-26T03:47:51.177Z,7.92
2023-05-26T03:50:17.938Z,7.58
2023-05-26T03:52:44.522Z,7.91
2023-05-26T03:55:11.105Z,7.70
2023-05-26T03:57:38.572Z,7.98
2023-05-26T04:00:06.272Z,7.97
2023-05-26T04:02:32.896Z,7.62
2023-05-26T04:04:59.514Z,7.83
2023-05-26T04:07:26.015Z,7.85
2023-05-26T04:09:52.593Z,7.91
2023-05-26T04:12:19.180Z,7.90
2023-05-26T04:14:45.669Z,7.92
2023-05-26T04:17:12.192Z,8.11
2023-05-26T04:19:38.678Z,8.02
2023-05-26T04:22:05.246Z,7.99
2023-05-26T04:24:31.766Z,7.99
2023-05-26T04:26:58.424Z,8.09
2023-05-26T04:29:25.107Z,7.99
2023-05-26T04:31:51.598Z,7.94
2023-05-26T04:34:18.197Z,8.01
2023-05-26T04:36:44.673Z,7.99
2023-05-26T04:39:11.303Z,8.20
2023-05-26T04:41:37.767Z,8.03
2023-05-26T04:44:04.272Z,8.12
2023-05-26T04:46:30.818Z,8.27
2023-05-26T04:48:57.303Z,7.85
2023-05-26T04:51:23.877Z,8.25
2023-05-26T04:53:50.759Z,8.06
2023-05-26T04:56:17.376Z,8.41
2023-05-26T04:58:43.857Z,8.38
2023-05-26T05:01:11.493Z,8.42
2023-05-26T05:03:38.345Z,8.30
2023-05-26T05:06:04.961Z,8.39
2023-05-26T05:08:31.417Z,8.39
2023-05-26T05:10:57.973Z,8.58
2023-05-26T05:13:24.551Z,8.50
2023-05-26T05:15:51.100Z,8.67
2023-05-26T05:18:17.697Z,8.56
2023-05-26T05:20:44.401Z,8.45
2023-05-26T05:23:11.011Z,8.51
2023-05-26T05:25:37.525Z,8.90
2023-05-26T05:28:04.074Z,9.00
2023-05-26T05:30:30.625Z,8.88
2023-05-26T05:32:57.381Z,9.15
2023-05-26T05:35:24.110Z,8.99
2023-05-26T05:37:51.323Z,9.12
2023-05-26T05:40:17.964Z,9.08
2023-05-26T05:42:44.476Z,9.15
2023-05-26T05:45:11.412Z,9.28
2023-05-26T05:47:37.983Z,9.36
2023-05-26T05:50:07.277Z,9.05
2023-05-26T05:52:35.647Z,9.03
2023-05-26T05:55:02.214Z,8.95
2023-05-26T05:57:28.819Z,9.48
2023-05-26T05:59:55.313Z,9.43
2023-05-26T06:02:21.986Z,9.54
2023-05-26T06:04:48.684Z,9.51
2023-05-26T06:07:15.221Z,9.82
2023-05-26T06:09:41.714Z,9.50
2023-05-26T06:12:08.471Z,10.22
2023-05-26T06:14:35.035Z,10.64
2023-05-26T06:17:01.613Z,10.79
2023-05-26T06:19:28.249Z,11.42
2023-05-26T06:21:54.738Z,10.72
2023-05-26T06:24:21.344Z,11.11
2023-05-26T06:26:47.893Z,11.22
2023-05-26T06:29:14.420Z,11.35
2023-05-26T06:31:41.050Z,11.23
2023-05-26T06:34:07.671Z,12.05
2023-05-26T06:36:34.180Z,12.09
2023-05-26T06:39:01.089Z,11.27
2023-05-26T06:41:27.571Z,11.35
2023-05-26T06:43:54.312Z,11.74
2023-05-26T06:46:20.901Z,11.42
2023-05-26T06:48:47.596Z,10.48
2023-05-26T06:51:14.093Z,10.90
2023-05-26T06:53:40.566Z,11.59
2023-05-26T06:56:07.305Z,11.08
2023-05-26T06:58:33.845Z,11.59
2023-05-26T07:01:02.615Z,11.46
2023-05-26T07:03:29.950Z,11.65
2023-05-26T07:05:57.971Z,11.62
2023-05-26T07:08:25.909Z,11.34
2023-05-26T07:10:52.454Z,11.67
2023-05-26T07:13:20.480Z,11.15
2023-05-26T07:15:47.310Z,11.00
2023-05-26T07:18:13.818Z,11.50
2023-05-26T07:20:40.365Z,11.51
2023-05-26T07:23:07.048Z,11.75
2023-05-26T07:25:33.657Z,11.91
2023-05-26T07:28:00.359Z,12.99
2023-05-26T07:30:26.836Z,12.97
2023-05-26T07:32:53.378Z,13.19
2023-05-26T07:35:19.952Z,14.24
2023-05-26T07:37:46.538Z,14.37
2023-05-26T07:40:13.535Z,15.58
2023-05-26T07:42:40.157Z,14.16
2023-05-26T07:45:07.320Z,14.12
2023-05-26T07:47:33.918Z,14.63
2023-05-26T07:50:00.594Z,14.04
2023-05-26T07:52:27.362Z,14.30
2023-05-26T07:54:55.144Z,14.53
2023-05-26T07:59:55.247Z,15.09
2023-05-26T08:02:21.822Z,14.84
2023-05-26T08:04:48.517Z,15.77
2023-05-26T08:07:15.914Z,14.72
2023-05-26T08:09:43.409Z,15.00
2023-05-26T08:12:10.067Z,15.29
2023-05-26T08:14:36.753Z,16.20
2023-05-26T08:17:03.353Z,14.92
2023-05-26T08:19:29.858Z,15.31
2023-05-26T08:21:56.599Z,16.17
2023-05-26T08:24:23.165Z,16.62
2023-05-26T08:26:50.598Z,16.04
2023-05-26T08:29:17.443Z,13.95
2023-05-26T08:31:44.267Z,16.18
2023-05-26T08:34:10.815Z,14.26
2023-05-26T08:36:37.312Z,15.33
2023-05-26T08:39:03.876Z,16.55
2023-05-26T08:41:57.067Z,17.87
2023-05-26T08:44:25.045Z,18.37
2023-05-26T08:46:51.943Z,18.04
2023-05-26T08:49:18.762Z,15.36
2023-05-26T08:51:48.107Z,16.73
2023-05-26T08:54:14.662Z,17.64
2023-05-26T08:56:41.895Z,17.40
2023-05-26T09:01:37.439Z,17.19
2023-05-26T09:04:04.198Z,17.56
2023-05-26T09:06:30.777Z,17.95
2023-05-26T09:08:57.320Z,17.52
2023-05-26T09:11:25.084Z,19.28
2023-05-26T09:13:55.673Z,17.59
2023-05-26T09:16:24.155Z,18.82
2023-05-26T09:18:55.465Z,16.80
2023-05-26T09:21:22.610Z,18.21
2023-05-26T09:24:02.041Z,19.09
2023-05-26T09:26:34.502Z,18.16
2023-05-26T09:29:02.674Z,19.12
2023-05-26T09:31:45.154Z,19.07
2023-05-26T09:34:12.604Z,18.93
2023-05-26T09:36:40.496Z,20.15
2023-05-26T09:39:12.081Z,20.03
2023-05-26T09:41:40.607Z,19.27
2023-05-26T09:44:32.512Z,19.72
2023-05-26T09:46:59.105Z,20.51
2023-05-26T09:49:25.605Z,18.55
2023-05-26T09:52:10.407Z,19.32
2023-05-26T09:54:38.839Z,19.23
2023-05-26T09:57:05.766Z,19.80
2023-05-26T09:59:34.340Z,19.91
2023-05-26T10:02:01.180Z,19.73
2023-05-26T10:04:28.537Z,19.23
2023-05-26T10:06:56.762Z,20.12
2023-05-26T10:09:23.925Z,20.50
2023-05-26T10:11:55.289Z,20.46
2023-05-26T10:14:22.443Z,21.16
2023-05-26T10:16:49.394Z,19.64
2023-05-26T10:19:16.493Z,18.04
2023-05-26T10:21:48.068Z,20.53
2023-05-26T10:24:39.918Z,19.74
2023-05-26T10:27:32.688Z,18.00
2023-05-26T10:30:06.414Z,17.24
2023-05-26T10:32:50.108Z,16.37
2023-05-26T10:35:30.801Z,17.12
2023-05-26T10:38:03.495Z,18.24
2023-05-26T10:40:48.758Z,17.57
2023-05-26T10:43:19.485Z,17.90
2023-05-26T10:45:57.659Z,16.59
2023-05-26T10:48:39.073Z,17.37
2023-05-26T10:51:06.371Z,17.70
2023-05-26T10:53:32.947Z,17.66
2023-05-26T10:56:04.505Z,17.05
2023-05-26T10:58:31.055Z,17.20
2023-05-26T11:01:06.596Z,17.41
2023-05-26T11:03:40.994Z,17.43
2023-05-26T11:06:09.351Z,17.50
2023-05-26T11:08:36.819Z,17.46
2023-05-26T11:11:05.578Z,17.09
2023-05-26T11:13:49.018Z,17.93
2023-05-26T11:16:24.954Z,17.68
2023-05-26T11:18:57.496Z,16.98
2023-05-26T11:21:26.229Z,17.47
2023-05-26T11:23:54.411Z,17.78
2023-05-26T11:26:21.266Z,17.59
2023-05-26T11:28:47.906Z,17.49
2023-05-26T11:31:20.126Z,17.01
2023-05-26T11:33:48.030Z,17.44
2023-05-26T11:36:19.332Z,17.75
2023-05-26T11:38:50.773Z,17.27
2023-05-26T11:41:17.417Z,16.79
2023-05-26T11:43:47.557Z,17.70
2023-05-26T11:46:17.616Z,17.93
2023-05-26T11:48:44.749Z,18.09
2023-05-26T11:51:22.132Z,18.06
2023-05-26T11:53:54.544Z,17.70
2023-05-26T11:56:21.124Z,17.75
2023-05-26T11:58:49.608Z,17.49
2023-05-26T12:01:16.491Z,17.86
2023-05-26T12:03:45.906Z,17.92
2023-05-26T12:06:23.622Z,16.54
2023-05-26T12:08:55.318Z,17.91
2023-05-26T12:11:30.781Z,18.39
2023-05-26T12:14:01.193Z,18.26
2023-05-26T12:16:37.995Z,18.23
2023-05-26T12:19:08.173Z,17.21
2023-05-26T12:21:42.030Z,17.44
2023-05-26T12:24:09.183Z,18.33
2023-05-26T12:26:36.008Z,18.43
2023-05-26T12:29:09.648Z,18.35
2023-05-26T12:31:53.616Z,18.57
2023-05-26T12:34:23.202Z,18.48
2023-05-26T12:36:50.428Z,18.79
2023-05-26T12:39:18.815Z,18.42
2023-05-26T12:41:46.193Z,18.74
2023-05-26T12:44:14.107Z,18.65
2023-05-26T12:46:41.463Z,18.98
2023-05-26T12:49:08.845Z,18.38
2023-05-26T12:51:37.911Z,19.34
2023-05-26T12:54:04.872Z,19.01
2023-05-26T12:56:31.384Z,19.58
2023-05-26T12:59:10.094Z,19.24
2023-05-26T13:01:44.619Z,18.88
2023-05-26T13:04:11.475Z,19.89
2023-05-26T13:06:38.067Z,20.51
2023-05-26T13:09:04.601Z,20.99
2023-05-26T13:11:31.163Z,21.22
2023-05-26T13:13:57.783Z,19.81
2023-05-26T13:16:26.114Z,20.19
2023-05-26T13:18:53.393Z,21.02
2023-05-26T13:21:19.915Z,20.81
2023-05-26T13:23:46.501Z,20.37
2023-05-26T13:26:13.018Z,21.70
2023-05-26T13:28:39.537Z,21.42
2023-05-26T13:31:06.157Z,20.99
2023-05-26T13:33:32.656Z,21.83
2023-05-26T13:35:59.158Z,22.59
2023-05-26T13:38:25.624Z,21.84
2023-05-26T13:40:52.332Z,21.75
2023-05-26T13:43:18.854Z,21.87
2023-05-26T13:45:53.601Z,21.61
2023-05-26T13:48:22.673Z,20.44
2023-05-26T13:50:49.251Z,21.40
2023-05-26T13:53:15.778Z,21.94
2023-05-26T13:55:42.476Z,21.74
2023-05-26T13:58:08.980Z,21.60
2023-05-26T14:00:35.510Z,22.04
2023-05-26T14:03:02.042Z,21.77
2023-05-26T14:05:28.636Z,21.15
2023-05-26T14:07:55.151Z,20.39
2023-05-26T14:10:22.913Z,22.07
2023-05-26T14:12:49.463Z,22.14
2023-05-26T14:15:15.976Z,22.40
2023-05-26T14:17:44.288Z,22.51
2023-05-26T14:21:39.269Z,21.85
2023-05-26T14:22:59.182Z,21.71
2023-05-26T14:25:26.170Z,22.61
2023-05-26T14:27:52.771Z,23.16
2023-05-26T14:30:21.757Z,21.32
2023-05-26T14:32:49.973Z,21.67
2023-05-26T14:35:18.252Z,22.17
2023-05-26T14:37:44.819Z,21.78
2023-05-26T14:40:11.614Z,23.22
2023-05-26T14:42:38.129Z,22.76
2023-05-26T14:45:05.076Z,21.86
2023-05-26T14:47:31.637Z,22.64
2023-05-26T14:49:59.072Z,22.67
2023-05-26T14:52:26.629Z,22.94
2023-05-26T14:54:53.173Z,22.35
2023-05-26T14:57:19.769Z,22.26
2023-05-26T14:59:46.269Z,21.93
2023-05-26T15:02:12.867Z,21.15
2023-05-26T15:04:39.478Z,21.95
2023-05-26T15:07:06.602Z,21.88
2023-05-26T15:09:33.100Z,21.73
2023-05-26T15:11:59.637Z,21.88
2023-05-26T15:14:26.175Z,22.12
2023-05-26T15:16:52.804Z,21.12
2023-05-26T15:19:19.418Z,20.81
2023-05-26T15:21:45.913Z,21.67
2023-05-26T15:24:12.367Z,21.82
2023-05-26T15:26:38.900Z,21.51
2023-05-26T15:29:05.483Z,21.77
2023-05-26T15:31:32.123Z,22.05
2023-05-26T15:33:58.645Z,21.28
2023-05-26T15:36:26.438Z,22.21
2023-05-26T15:38:53.063Z,22.08
2023-05-26T15:41:20.418Z,21.55
2023-05-26T15:43:46.989Z,21.83
2023-05-26T15:46:13.491Z,21.99
2023-05-26T15:48:40.025Z,21.52
2023-05-26T15:51:06.498Z,21.43
2023-05-26T15:53:33.131Z,20.69
2023-05-26T15:56:00.085Z,21.49
2023-05-26T15:58:26.829Z,21.81
2023-05-26T16:00:53.420Z,21.58
2023-05-26T16:03:19.989Z,20.67
2023-05-26T16:05:46.525Z,21.17
2023-05-26T16:08:13.342Z,21.64
2023-05-26T16:10:39.808Z,21.44
2023-05-26T16:13:06.325Z,20.90
2023-05-26T16:15:32.844Z,20.67
2023-05-26T16:17:59.485Z,20.59
2023-05-26T16:20:25.976Z,20.62
2023-05-26T16:22:52.675Z,20.48
2023-05-26T16:25:19.418Z,20.46
2023-05-26T16:27:45.954Z,19.97
2023-05-26T16:30:13.087Z,19.69
2023-05-26T16:32:39.587Z,19.47
2023-05-26T16:35:06.325Z,19.97
2023-05-26T16:37:32.825Z,19.53
2023-05-26T16:39:59.286Z,19.33
2023-05-26T16:42:25.778Z,19.59
2023-05-26T16:44:52.217Z,19.44
2023-05-26T16:47:18.832Z,19.37
2023-05-26T16:49:45.333Z,19.46
2023-05-26T16:52:11.783Z,19.40
2023-05-26T16:54:38.271Z,19.44
2023-05-26T16:57:04.919Z,18.87
2023-05-26T16:59:31.391Z,19.11
2023-05-26T17:01:57.942Z,19.69
2023-05-26T17:04:24.521Z,19.04
2023-05-26T17:06:50.995Z,18.89
2023-05-26T17:09:17.505Z,18.65
2023-05-26T17:11:44.008Z,18.89
2023-05-26T17:14:12.052Z,18.99
2023-05-26T17:16:41.422Z,18.63
2023-05-26T17:19:07.922Z,17.91
2023-05-26T17:21:34.463Z,18.06
2023-05-26T17:24:01.163Z,18.30
2023-05-26T17:26:27.753Z,18.32
2023-05-26T17:28:54.277Z,18.09
2023-05-26T17:31:20.824Z,17.85
2023-05-26T17:33:47.427Z,17.97
2023-05-26T17:36:13.940Z,17.61
2023-05-26T17:38:40.443Z,17.86
2023-05-26T17:41:06.907Z,17.45
2023-05-26T17:43:33.666Z,17.85
2023-05-26T17:46:00.327Z,17.63
2023-05-26T17:48:26.975Z,17.71
2023-05-26T17:50:53.676Z,17.58
2023-05-26T17:53:20.426Z,17.21
2023-05-26T17:55:46.876Z,17.53
2023-05-26T17:58:13.446Z,16.96
2023-05-26T18:00:40.207Z,17.11
2023-05-26T18:03:06.635Z,16.99
2023-05-26T18:05:33.975Z,16.86
2023-05-26T18:08:00.526Z,16.80
2023-05-26T18:10:27.206Z,16.64
2023-05-26T18:12:53.659Z,16.59
2023-05-26T18:15:20.207Z,16.60
2023-05-26T18:17:46.774Z,16.38
2023-05-26T18:20:13.369Z,16.39
2023-05-26T18:22:39.899Z,15.98
2023-05-26T18:25:06.607Z,15.84
2023-05-26T18:27:33.054Z,15.85
2023-05-26T18:29:59.556Z,15.76
2023-05-26T18:32:27.125Z,16.20
2023-05-26T18:34:53.910Z,16.12
2023-05-26T18:37:20.481Z,15.84
2023-05-26T18:39:52.009Z,16.05
2023-05-26T18:42:18.647Z,15.99
2023-05-26T18:44:45.156Z,15.51
2023-05-26T18:47:11.707Z,15.21
2023-05-26T18:49:38.177Z,15.72
2023-05-26T18:52:04.860Z,15.21
2023-05-26T18:54:31.319Z,15.57
2023-05-26T18:56:57.777Z,15.47
2023-05-26T18:59:24.510Z,15.43
2023-05-26T19:01:51.182Z,15.47
2023-05-26T19:04:17.711Z,14.88
2023-05-26T19:06:44.124Z,15.26
2023-05-26T19:09:10.652Z,15.22
2023-05-26T19:11:37.136Z,15.19
2023-05-26T19:14:03.674Z,15.15
2023-05-26T19:16:30.392Z,15.06
2023-05-26T19:18:57.112Z,15.20
2023-05-26T19:21:23.783Z,14.76
2023-05-26T19:23:50.281Z,15.03
2023-05-26T19:26:16.794Z,14.85
2023-05-26T19:28:49.918Z,14.88
2023-05-26T19:31:21.309Z,14.82
2023-05-26T19:33:47.973Z,14.46
2023-05-26T19:36:14.608Z,14.59
2023-05-26T19:38:41.148Z,14.53
2023-05-26T19:41:07.685Z,14.65
2023-05-26T19:43:34.214Z,14.23
2023-05-26T19:46:00.970Z,14.27
2023-05-26T19:48:27.556Z,14.57
2023-05-26T19:50:54.165Z,14.00
2023-05-26T19:53:20.879Z,14.23
2023-05-26T19:55:47.708Z,14.19
2023-05-26T19:58:14.300Z,14.05
2023-05-26T20:00:40.802Z,14.20
2023-05-26T20:03:07.531Z,14.12
2023-05-26T20:05:34.272Z,14.03
2023-05-26T20:08:00.811Z,14.00
2023-05-26T20:10:27.657Z,13.77
2023-05-26T20:12:54.167Z,13.69
2023-05-26T20:15:20.634Z,14.03
2023-05-26T20:17:47.221Z,13.93
2023-05-26T20:20:14.820Z,13.70
2023-05-26T20:22:41.643Z,13.46
2023-05-26T20:25:08.688Z,13.80
2023-05-26T20:27:35.267Z,13.69
2023-05-26T20:30:01.835Z,13.27
2023-05-26T20:32:28.521Z,13.68
2023-05-26T20:34:54.983Z,13.32
2023-05-26T20:37:21.597Z,13.21
2023-05-26T20:39:48.187Z,13.54
2023-05-26T20:42:14.849Z,13.56
2023-05-26T20:44:41.331Z,13.68
2023-05-26T20:47:07.935Z,13.61
2023-05-26T20:49:34.520Z,12.96
2023-05-26T20:52:01.025Z,12.97
2023-05-26T20:54:27.488Z,13.23
2023-05-26T20:56:54.000Z,13.38
2023-05-26T20:59:20.497Z,13.28
2023-05-26T21:01:47.075Z,13.14
2023-05-26T21:04:14.147Z,13.14
2023-05-26T21:06:40.902Z,13.11
2023-05-26T21:09:07.374Z,13.09
2023-05-26T21:11:33.841Z,12.92
2023-05-26T21:14:00.274Z,12.91
2023-05-26T21:16:26.881Z,12.80
2023-05-26T21:18:53.384Z,12.90
2023-05-26T21:21:19.922Z,12.99
2023-05-26T21:23:46.455Z,12.73
2023-05-26T21:26:12.984Z,12.60
2023-05-26T21:28:40.076Z,12.58
2023-05-26T21:31:06.595Z,12.64
2023-05-26T21:33:33.150Z,12.72
2023-05-26T21:35:59.625Z,12.57
2023-05-26T21:38:26.113Z,12.63
2023-05-26T21:40:52.853Z,12.63
2023-05-26T21:43:19.417Z,12.68
2023-05-26T21:45:45.994Z,12.43
2023-05-26T21:48:12.694Z,12.69
2023-05-26T21:50:39.274Z,12.63
2023-05-26T21:53:05.755Z,12.31
2023-05-26T21:55:32.363Z,12.42
2023-05-26T21:57:58.970Z,12.16
2023-05-26T22:00:25.602Z,12.43
2023-05-26T22:02:52.152Z,12.08
2023-05-26T22:05:18.813Z,12.32
2023-05-26T22:07:45.332Z,12.39
2023-05-26T22:10:12.349Z,12.44
2023-05-26T22:12:38.868Z,12.05
2023-05-26T22:15:06.025Z,11.92
2023-05-26T22:17:32.503Z,12.03
2023-05-26T22:19:59.215Z,11.85
2023-05-26T22:22:25.733Z,12.15
2023-05-26T22:24:52.745Z,12.01
2023-05-26T22:27:19.322Z,11.64
2023-05-26T22:29:45.957Z,11.70
2023-05-26T22:32:12.543Z,11.98
2023-05-26T22:34:39.078Z,11.93
2023-05-26T22:37:06.063Z,11.94
2023-05-26T22:39:32.584Z,11.77
2023-05-26T22:41:59.606Z,11.77
2023-05-26T22:44:26.128Z,11.77
2023-05-26T22:46:52.692Z,11.48
2023-05-26T22:49:19.265Z,11.69
2023-05-26T22:51:45.938Z,11.68
2023-05-26T22:54:12.746Z,11.56
2023-05-26T22:56:40.480Z,11.30
2023-05-26T22:59:07.247Z,11.42
2023-05-26T23:01:33.927Z,11.34
2023-05-26T23:04:00.544Z,11.52
2023-05-26T23:06:27.401Z,11.23
2023-05-26T23:08:54.008Z,11.41
2023-05-26T23:11:20.603Z,11.43
2023-05-26T23:13:47.106Z,11.27
2023-05-26T23:16:13.639Z,11.17
2023-05-26T23:18:40.189Z,11.31
2023-05-26T23:21:06.771Z,11.27
2023-05-26T23:23:33.465Z,11.30
2023-05-26T23:25:59.981Z,11.16
2023-05-26T23:28:26.491Z,10.84
2023-05-26T23:30:52.950Z,10.79
2023-05-26T23:33:19.484Z,10.79
2023-05-26T23:35:45.980Z,10.73
2023-05-26T23:38:12.513Z,10.85
2023-05-26T23:40:38.967Z,11.06
2023-05-26T23:43:05.424Z,11.03
2023-05-26T23:45:32.014Z,10.93
2023-05-26T23:47:58.506Z,10.81
2023-05-26T23:50:25.376Z,10.99
2023-05-26T23:52:51.893Z,10.70
2023-05-26T23:55:18.622Z,10.58
2023-05-26T23:57:45.077Z,10.62
